Cooke City, MT (59020)

1:37 PM MDT on September 01, 2015 (GMT -0600)
Old Cooke City | | Change Station
CLOSE
Current Station
Personal Weather Station
Location: Montana, MT
Elevation: 7566 ft
Nearby Weather Stations
Active Advisory: Fire Weather Warning

Elev 7566 ft 45.02 °N, 109.94 °W | Updated 8 minutes ago

Clear
Clear
72.3 °F
Feels Like 75 °F
N
7.8
Wind Variable Wind from NNW

Today
High -- | Low -- °F
--% Chance of Precip.
Yesterday
High -- | Low -- °F
Precip. -- in
6:41 AM 7:57 PM
Waning Gibbous, 87% visible
Pressure 29.98 in
Visibility -9999.0 miles
Clouds
Heat Index 75 °F
Dew Point 32 °F
Humidity 23%
Rainfall 0.00 in
Snow Depth Not available.
UV Not available.
Pollen 9.10 out of 12
Air Quality Not available.
Flu Activity Not available.
METAR KP60 011856Z AUTO 27008G18KT 22/M05 A3019 RMK AO1 SLP152 T02171050 $
Pressure 29.98 in
Visibility -9999.0 miles
Clouds
Heat Index 75 °F
Dew Point 32 °F
Humidity 23%
Rainfall 0.00 in
Snow Depth Not available.
UV Not available.
Pollen 9.10 out of 12
Air Quality Not available.
Flu Activity Not available.
METAR KP60 011856Z AUTO 27008G18KT 22/M05 A3019 RMK AO1 SLP152 T02171050 $

10-Day Weather Forecast

×

Almanac

Astronomy

Sep. 01, 2015 Rise Set
Actual Time
Civil Twilight
Nautical Twilight
Astronomical Twilight
Moon
Length of Visible Light
Length of Day
Tomorrow will be .
, % of the Moon is Illuminated

Today's Extremes

State Highs State Lows

Community

WunderPhotos

Upload Photos

1,851,597 photos uploaded!

WunderBlogs® & News

Nearby

Air Quality

  Air Quality AQ Index Pollutant
Not available.

Snow Depth

Station Depth Elevation

Earthquake Activity

City Distance Mag. Time & Date
Minimum magnitude displayed is 2.5.

Coastal Water Temperatures

Place Temperature

Stations

Nearby Weather Stations

Station Location Temp. Windchill Dew Point Humidity Wind Precip. Elev Updated Type
                   
Fire Weather Warning
Statement as of 3:10 AM MDT on September 01, 2015

... Red flag warning in effect from noon Wednesday to midnight MDT
Wednesday night...

The National Weather Service in Billings has issued a red flag
warning... which is in effect from noon Wednesday to midnight MDT
Wednesday night.

* Impacts: low humidities... hot temperatures... and strong gusty
winds will create critical fire weather conditions.

* Affected area: in south central Mt... fire weather zones
123... 124... 125 and 126.

* Counties affected:
   in central Mt... Wheatland.
   In south central Mt... Carbon... park... Stillwater... Sweet Grass.
   In southwest Mt... Gallatin.

* Wind: southwest 15 to 25 mph with gusts up to 35 mph.

* Humidity: lower to middle teens.

* Temperatures: around 90.

Precautionary/preparedness actions...

Be very careful with any open flames. Check with local officials
before conducting any burning.